Time;durP1;ratioP1;P1;durP2;ratioP2;P2;SDS_P1;SDS_P2;PMS_P1;PMS_P2;Temp;Humidity;BMP_temperature;BMP_pressure;BME280_temperature;BME280_humidity;BME280_pressure;Samples;Min_cycle;Max_cycle;Signal;HPM_P1;HPM_P2
2022/12/31 00:01:19;;;;;;;4.25;1.52;;;;;;;13.28;100.00;100002.41;5123344;28;20039;-82
2022/12/31 00:03:45;;;;;;;5.53;1.95;;;;;;;13.19;100.00;99997.84;5103601;28;20126;-82
2022/12/31 00:06:15;;;;;;;2.70;1.98;;;;;;;13.23;100.00;100002.88;5119432;28;20081;-82
2022/12/31 00:08:40;;;;;;;2.75;1.70;;;;;;;13.21;100.00;99990.31;5095997;28;20027;-82
2022/12/31 00:11:06;;;;;;;4.53;2.70;;;;;;;13.15;100.00;99993.69;5121567;28;20042;-82
2022/12/31 00:13:31;;;;;;;3.17;2.20;;;;;;;13.12;100.00;99985.75;5121079;28;20482;-82
2022/12/31 00:16:08;;;;;;;4.60;2.15;;;;;;;13.19;100.00;100006.09;5101251;28;20445;-82
2022/12/31 00:18:34;;;;;;;3.03;2.35;;;;;;;13.16;100.00;99993.53;5117532;28;20106;-82
2022/12/31 00:21:03;;;;;;;6.63;2.40;;;;;;;13.21;100.00;100002.16;5122293;28;20082;-82
2022/12/31 00:23:29;;;;;;;7.00;2.63;;;;;;;13.17;100.00;99998.00;5104502;28;20058;-82
2022/12/31 00:25:54;;;;;;;4.72;2.50;;;;;;;13.12;100.00;99992.13;5120709;28;20067;-82
2022/12/31 00:28:23;;;;;;;6.97;2.80;;;;;;;13.11;100.00;99981.31;5104180;28;20119;-82
2022/12/31 00:30:48;;;;;;;6.97;2.53;;;;;;;13.15;100.00;99985.44;5120437;28;20051;-82
2022/12/31 00:33:13;;;;;;;3.65;3.15;;;;;;;13.24;100.00;99985.34;5103279;28;20040;-83
2022/12/31 00:35:39;;;;;;;7.68;2.75;;;;;;;13.16;100.00;99970.69;5087333;28;20061;-82
2022/12/31 00:38:05;;;;;;;6.00;2.72;;;;;;;13.27;100.00;99989.66;5084334;28;20040;-83
2022/12/31 00:40:31;;;;;;;10.38;3.03;;;;;;;13.21;100.00;99990.31;5089352;28;20071;-83
2022/12/31 00:42:56;;;;;;;10.02;3.47;;;;;;;13.18;100.00;99979.63;5124070;28;20035;-83
2022/12/31 00:45:22;;;;;;;4.97;3.53;;;;;;;13.12;100.00;99969.25;5087202;28;20096;-82
2022/12/31 00:47:47;;;;;;;4.55;3.78;;;;;;;13.17;100.00;99973.28;5128032;28;20034;-82
2022/12/31 00:50:12;;;;;;;11.40;4.00;;;;;;;13.14;100.00;99975.50;5103236;28;20040;-81
2022/12/31 00:52:38;;;;;;;8.77;3.70;;;;;;;13.11;100.00;99964.81;5122070;28;20024;-81
2022/12/31 00:55:04;;;;;;;5.88;1.98;;;;;;;13.04;100.00;99953.59;5101902;28;20506;-82
2022/12/31 00:57:29;;;;;;;2.45;1.30;;;;;;;12.98;100.00;99954.22;5103206;28;20038;-82
2022/12/31 00:59:55;;;;;;;1.60;1.15;;;;;;;13.04;100.00;99959.09;5121036;28;20559;-82
2022/12/31 01:02:20;;;;;;;3.80;2.10;;;;;;;13.02;100.00;99952.91;5102083;28;20028;-82
2022/12/31 01:04:46;;;;;;;5.13;2.25;;;;;;;13.01;100.00;99953.91;5075162;28;20031;-81
2022/12/31 01:07:11;;;;;;;4.20;1.98;;;;;;;13.04;100.00;99954.44;5104439;28;20023;-82
2022/12/31 01:09:36;;;;;;;10.13;2.42;;;;;;;12.94;100.00;99939.94;5104124;28;20051;-82
2022/12/31 01:12:02;;;;;;;10.13;3.03;;;;;;;13.08;100.00;99954.13;5087089;28;20122;-83
2022/12/31 01:14:27;;;;;;;21.90;4.25;;;;;;;12.97;100.00;99936.88;5102221;28;20034;-82
2022/12/31 01:16:53;;;;;;;10.75;3.83;;;;;;;13.04;100.00;99931.63;5100375;28;20538;-82
2022/12/31 01:19:24;;;;;;;9.90;4.90;;;;;;;13.05;100.00;99939.69;5099011;28;20036;-82
2022/12/31 01:21:50;;;;;;;12.30;5.13;;;;;;;13.03;100.00;99927.97;5103650;28;20027;-82
2022/12/31 01:24:16;;;;;;;12.18;5.70;;;;;;;13.07;100.00;99931.28;5084991;28;20073;-82
2022/12/31 01:26:42;;;;;;;8.70;5.95;;;;;;;13.08;100.00;99940.41;5122015;28;20103;-82
2022/12/31 01:29:09;;;;;;;10.40;5.97;;;;;;;12.98;100.00;99924.00;5125191;27;20071;-82
2022/12/31 01:31:35;;;;;;;11.95;5.70;;;;;;;13.04;100.00;99937.97;5108191;27;20037;-82
2022/12/31 01:34:01;;;;;;;8.57;5.38;;;;;;;13.12;100.00;99934.41;5142105;27;20054;-82
2022/12/31 01:36:28;;;;;;;8.50;5.60;;;;;;;13.17;100.00;99954.03;5140862;27;20042;-83
2022/12/31 01:38:56;;;;;;;9.68;5.15;;;;;;;13.16;100.00;99960.53;5141485;27;20023;-82
2022/12/31 01:41:26;;;;;;;15.85;4.82;;;;;;;13.19;100.00;99957.47;5105479;27;20023;-82
2022/12/31 01:44:01;;;;;;;9.57;4.43;;;;;;;13.32;100.00;99959.84;5121938;27;20023;-82
2022/12/31 01:46:26;;;;;;;12.40;6.47;;;;;;;13.24;100.00;99965.25;5141435;27;20038;-83
2022/12/31 01:48:56;;;;;;;14.57;6.93;;;;;;;13.35;100.00;99953.16;5143101;27;20039;-82
2022/12/31 01:51:25;;;;;;;11.70;6.30;;;;;;;13.32;100.00;99956.19;5105646;27;20019;-83
2022/12/31 01:53:51;;;;;;;11.65;6.00;;;;;;;13.29;100.00;99959.28;5123833;27;20035;-83
2022/12/31 01:56:20;;;;;;;14.57;5.80;;;;;;;13.39;100.00;99952.66;5090024;27;20042;-83
2022/12/31 01:58:49;;;;;;;12.80;5.90;;;;;;;13.30;100.00;99939.88;5104767;28;20068;-83
2022/12/31 02:01:23;;;;;;;10.88;5.00;;;;;;;13.41;100.00;99933.25;5106170;27;20402;-83
2022/12/31 02:03:49;;;;;;;7.40;4.50;;;;;;;13.48;100.00;99952.72;5122157;27;20031;-83
2022/12/31 02:06:38;;;;;;;4.78;3.30;;;;;;;13.48;100.00;99974.72;5107055;27;20504;-82
2022/12/31 02:09:03;;;;;;;4.70;3.40;;;;;;;13.56;100.00;99989.38;5106545;27;20027;-82
2022/12/31 02:11:35;;;;;;;19.77;4.40;;;;;;;13.45;100.00;100049.31;5121919;27;20037;-82
2022/12/31 02:14:32;;;;;;;1.80;1.10;;;;;;;13.12;100.00;100043.47;5120749;27;20039;-82
2022/12/31 02:17:03;;;;;;;3.17;0.88;;;;;;;13.02;100.00;100041.69;5136303;27;20039;-82
2022/12/31 02:20:06;;;;;;;1.45;0.60;;;;;;;13.08;100.00;100039.34;5097834;27;20045;-82
2022/12/31 02:23:14;;;;;;;1.15;0.73;;;;;;;13.12;100.00;100029.72;5124135;27;20114;-82
2022/12/31 02:25:54;;;;;;;1.08;0.75;;;;;;;13.14;100.00;100041.47;5135146;27;20099;-82
2022/12/31 02:28:41;;;;;;;3.80;1.90;;;;;;;13.12;100.00;100036.13;5123212;27;20037;-82
2022/12/31 02:31:16;;;;;;;1.33;0.40;;;;;;;13.10;100.00;100032.66;5139471;27;20027;-82
2022/12/31 02:34:06;;;;;;;0.40;0.40;;;;;;;13.17;100.00;100033.75;5125526;27;20520;-82
2022/12/31 02:36:37;;;;;;;3.28;0.47;;;;;;;13.13;100.00;100026.81;5123185;27;20088;-81
2022/12/31 02:39:06;;;;;;;0.77;0.50;;;;;;;13.02;100.00;100029.84;5124504;27;20548;-82
2022/12/31 02:41:50;;;;;;;0.50;0.50;;;;;;;13.01;100.00;100022.63;5125171;27;20494;-83
2022/12/31 02:44:30;;;;;;;1.40;0.52;;;;;;;13.04;100.00;100036.91;5107209;27;20050;-82
2022/12/31 02:47:05;;;;;;;0.50;0.50;;;;;;;13.03;100.00;100037.06;5107043;27;20077;-82
2022/12/31 02:50:03;;;;;;;0.90;0.60;;;;;;;13.00;100.00;100043.75;5124235;27;20116;-83
2022/12/31 02:52:47;;;;;;;2.05;0.50;;;;;;;13.03;100.00;100042.53;5096071;27;20031;-82
2022/12/31 02:55:25;;;;;;;0.77;0.60;;;;;;;13.00;100.00;100053.84;5141709;27;20403;-82
2022/12/31 02:58:07;;;;;;;5.82;0.75;;;;;;;12.99;100.00;100053.00;5122623;27;20026;-82
2022/12/31 03:03:26;;;;;;;3.30;0.60;;;;;;;12.94;100.00;100049.00;5120626;27;20786;-82
2022/12/31 03:05:51;;;;;;;1.55;0.60;;;;;;;12.92;100.00;100057.41;5117399;27;20450;-82
2022/12/31 03:08:25;;;;;;;1.33;0.70;;;;;;;12.84;100.00;100043.59;5123922;27;20028;-82
2022/12/31 03:10:50;;;;;;;1.00;0.70;;;;;;;12.72;100.00;100028.34;5105831;27;20238;-82
2022/12/31 03:13:16;;;;;;;1.13;0.85;;;;;;;12.72;100.00;100044.81;5141104;27;20058;-82
2022/12/31 03:15:41;;;;;;;1.33;0.80;;;;;;;12.63;100.00;100036.50;5102138;28;20031;-82
2022/12/31 03:18:09;;;;;;;0.88;0.60;;;;;;;12.58;100.00;100041.59;5088823;27;20114;-82
2022/12/31 03:23:32;;;;;;;4.63;0.93;;;;;;;12.66;100.00;100033.44;5124126;27;20031;-82
2022/12/31 03:25:58;;;;;;;;;;;;;;;12.65;100.00;100020.72;5124152;28;20122;-82
2022/12/31 03:28:26;;;;;;;1.92;0.95;;;;;;;12.62;100.00;100033.91;5125180;27;19916;-82
2022/12/31 03:30:57;;;;;;;2.72;1.05;;;;;;;12.58;100.00;100019.63;5122688;28;20421;-82
2022/12/31 03:33:23;;;;;;;4.47;1.40;;;;;;;12.64;100.00;100023.63;5120718;28;20035;-83
2022/12/31 03:35:50;;;;;;;2.25;1.35;;;;;;;12.49;100.00;100004.06;5122306;28;20027;-82
2022/12/31 03:38:17;;;;;;;4.10;1.70;;;;;;;12.60;100.00;100008.47;5122301;28;20035;-82
2022/12/31 03:40:45;;;;;;;2.72;1.77;;;;;;;12.67;100.00;100015.06;5088484;28;20031;-82
2022/12/31 03:43:11;;;;;;;6.05;1.77;;;;;;;12.65;100.00;100011.63;5121885;28;20402;-82
2022/12/31 03:45:37;;;;;;;5.05;1.70;;;;;;;12.50;100.00;100005.81;5104469;28;20039;-82
2022/12/31 03:48:04;;;;;;;3.17;1.50;;;;;;;12.55;100.00;100008.09;5102712;28;20055;-83
2022/12/31 03:50:31;;;;;;;2.85;1.80;;;;;;;12.41;100.00;100002.13;5103032;28;20034;-82
2022/12/31 03:52:57;;;;;;;3.03;2.03;;;;;;;12.38;100.00;99987.81;5115146;28;20125;-82
2022/12/31 03:55:23;;;;;;;6.93;2.83;;;;;;;12.43;100.00;99996.44;5140701;28;20404;-82
2022/12/31 03:57:48;;;;;;;4.00;2.50;;;;;;;12.44;100.00;99990.81;5089584;28;20034;-82
2022/12/31 04:00:19;;;;;;;3.65;2.22;;;;;;;12.55;100.00;99991.63;5105717;28;20107;-82
2022/12/31 04:02:46;;;;;;;6.55;2.38;;;;;;;12.49;100.00;99980.25;5140702;28;20031;-82
2022/12/31 04:05:12;;;;;;;4.38;2.75;;;;;;;12.61;100.00;99978.13;5104351;28;20087;-82
2022/12/31 04:07:38;;;;;;;6.13;2.53;;;;;;;12.67;100.00;99974.75;5122209;28;20066;-82
2022/12/31 04:10:06;;;;;;;5.47;2.10;;;;;;;12.73;100.00;99969.66;5121661;28;20027;-82
2022/12/31 04:12:32;;;;;;;5.07;1.48;;;;;;;12.85;100.00;99966.50;5104648;28;20062;-83
2022/12/31 04:14:57;;;;;;;5.57;1.90;;;;;;;13.04;100.00;99956.34;5102233;28;20143;-82
2022/12/31 04:17:23;;;;;;;4.90;1.30;;;;;;;13.24;100.00;99970.75;5138905;28;20023;-82
2022/12/31 04:19:49;;;;;;;9.63;1.38;;;;;;;13.45;100.00;99948.41;5100095;28;20474;-82
2022/12/31 04:22:14;;;;;;;23.33;2.58;;;;;;;13.44;100.00;99934.81;5084734;27;20118;-82
2022/12/31 04:24:41;;;;;;;5.45;0.90;;;;;;;13.61;100.00;99958.66;5119285;28;20047;-82
2022/12/31 04:27:07;;;;;;;10.75;0.80;;;;;;;13.72;100.00;99936.31;5105798;27;20041;-82
2022/12/31 04:29:33;;;;;;;5.78;0.82;;;;;;;13.83;100.00;99950.84;5105704;27;20111;-83
2022/12/31 04:31:58;;;;;;;7.25;0.95;;;;;;;13.83;100.00;99939.84;5123885;27;20057;-82
2022/12/31 04:34:24;;;;;;;7.57;0.90;;;;;;;13.74;100.00;99937.06;5123288;27;20083;-82
2022/12/31 04:36:49;;;;;;;6.65;1.17;;;;;;;13.84;100.00;99958.94;5092215;27;20043;-82
2022/12/31 04:39:15;;;;;;;7.57;0.90;;;;;;;13.96;100.00;99931.97;5107662;27;20537;-82
2022/12/31 04:41:40;;;;;;;4.82;0.80;;;;;;;13.97;100.00;99929.06;5125138;27;20035;-82
2022/12/31 04:44:06;;;;;;;7.60;0.65;;;;;;;14.14;100.00;99954.75;5112513;27;20060;-82
2022/12/31 04:46:32;;;;;;;4.28;0.77;;;;;;;14.17;100.00;99967.31;5125078;27;20035;-83
2022/12/31 04:48:58;;;;;;;4.63;0.75;;;;;;;14.25;100.00;99961.84;5126762;27;20031;-82
2022/12/31 04:51:25;;;;;;;7.00;1.10;;;;;;;14.16;100.00;99955.41;5126925;27;20031;-82
2022/12/31 04:53:51;;;;;;;18.00;1.00;;;;;;;14.15;100.00;99955.63;5109723;27;20061;-82
2022/12/31 04:56:17;;;;;;;6.28;0.80;;;;;;;14.12;100.00;99945.78;5125795;27;20031;-82
2022/12/31 04:58:43;;;;;;;5.47;0.90;;;;;;;13.99;100.00;99942.66;5127647;27;20050;-83
2022/12/31 05:01:08;;;;;;;8.75;1.48;;;;;;;14.10;100.00;99966.25;5127357;27;20115;-82
2022/12/31 05:03:34;;;;;;;5.28;0.90;;;;;;;14.12;100.00;99964.22;5108948;27;20494;-83
2022/12/31 05:06:01;;;;;;;10.43;0.88;;;;;;;14.04;100.00;99976.03;5122735;27;20031;-83
2022/12/31 05:08:30;;;;;;;3.90;0.70;;;;;;;14.18;100.00;99977.28;5090617;27;20431;-82
2022/12/31 05:10:55;;;;;;;3.70;0.90;;;;;;;14.28;100.00;99967.00;5127065;27;20027;-82
2022/12/31 05:13:21;;;;;;;2.47;0.70;;;;;;;14.33;100.00;99975.63;5144733;27;20053;-83
2022/12/31 05:15:47;;;;;;;7.85;1.00;;;;;;;14.32;100.00;99984.06;5120871;27;20027;-83
2022/12/31 05:18:12;;;;;;;4.90;0.57;;;;;;;14.44;100.00;99982.69;5074901;27;20076;-83
2022/12/31 05:20:38;;;;;;;5.32;0.90;;;;;;;14.36;100.00;99977.16;5107696;27;20023;-82
2022/12/31 05:23:03;;;;;;;4.63;1.38;;;;;;;14.43;100.00;100007.66;5123788;27;20038;-83
2022/12/31 05:25:29;;;;;;;7.55;0.90;;;;;;;14.45;100.00;100006.47;5105860;27;20069;-82
2022/12/31 05:27:55;;;;;;;9.55;2.05;;;;;;;14.49;100.00;100012.50;5092770;27;20102;-83
2022/12/31 05:30:24;;;;;;;6.00;0.60;;;;;;;14.57;100.00;100017.19;5109568;27;20043;-83
2022/12/31 05:32:49;;;;;;;4.05;0.65;;;;;;;14.53;100.00;100025.78;5105742;28;20035;-82
2022/12/31 05:35:15;;;;;;;4.65;0.98;;;;;;;14.56;100.00;100029.22;5095822;28;20081;-83
2022/12/31 05:37:41;;;;;;;10.02;1.15;;;;;;;14.38;100.00;100029.31;5091088;27;20031;-83
2022/12/31 05:40:07;;;;;;;11.68;1.20;;;;;;;14.40;100.00;100019.03;5092401;27;20042;-83
2022/12/31 05:42:33;;;;;;;5.75;0.70;;;;;;;14.36;100.00;100037.75;5123940;27;20035;-83
2022/12/31 05:44:58;;;;;;;5.53;0.77;;;;;;;14.41;100.00;100035.34;5108096;27;20512;-82
2022/12/31 05:47:24;;;;;;;2.53;0.80;;;;;;;14.33;100.00;100016.06;5091704;27;20520;-82
2022/12/31 05:49:50;;;;;;;6.35;1.58;;;;;;;14.47;100.00;100026.44;5118873;27;20039;-82
2022/12/31 05:52:15;;;;;;;11.60;0.93;;;;;;;14.50;100.00;100025.25;5125111;27;20035;-82
2022/12/31 05:54:41;;;;;;;7.60;1.23;;;;;;;14.50;100.00;100028.84;5143632;27;20031;-82
2022/12/31 05:57:06;;;;;;;6.53;1.05;;;;;;;14.47;100.00;100020.94;5126350;27;20054;-82
2022/12/31 05:59:32;;;;;;;11.68;1.10;;;;;;;14.51;100.00;100019.56;5102706;27;20114;-83
2022/12/31 06:01:57;;;;;;;5.82;0.70;;;;;;;14.59;100.00;100023.38;5124198;27;20039;-82
2022/12/31 06:04:23;;;;;;;8.48;0.80;;;;;;;14.64;100.00;100034.78;5145319;27;20454;-82
2022/12/31 06:06:49;;;;;;;9.00;0.93;;;;;;;14.69;100.00;100041.53;5110957;27;20030;-83
2022/12/31 06:09:16;;;;;;;3.50;0.80;;;;;;;14.81;100.00;100043.97;5145596;27;20031;-83
2022/12/31 06:11:42;;;;;;;5.47;0.75;;;;;;;14.86;100.00;100042.41;5144117;27;20502;-83
2022/12/31 06:14:08;;;;;;;6.38;0.85;;;;;;;14.97;100.00;100037.59;5106587;27;20034;-82
2022/12/31 06:16:33;;;;;;;13.60;0.90;;;;;;;14.95;100.00;100035.00;5109409;27;20543;-83
2022/12/31 06:18:59;;;;;;;8.10;0.70;;;;;;;15.01;100.00;100047.25;5107408;27;20024;-83
2022/12/31 06:21:24;;;;;;;3.05;0.68;;;;;;;15.06;100.00;100039.34;5109540;27;20374;-83
2022/12/31 06:23:50;;;;;;;12.27;1.10;;;;;;;15.00;100.00;100031.75;5123901;27;20114;-83
2022/12/31 06:26:15;;;;;;;5.25;1.00;;;;;;;15.04;100.00;100072.59;5103785;27;20023;-83
2022/12/31 06:28:41;;;;;;;3.42;0.55;;;;;;;15.03;100.00;100039.69;5120569;27;20088;-83
2022/12/31 06:31:10;;;;;;;6.45;0.60;;;;;;;15.19;100.00;100050.72;5099709;27;20040;-83
2022/12/31 06:33:35;;;;;;;3.45;0.60;;;;;;;15.25;100.00;100074.84;5102737;27;20031;-83
2022/12/31 06:36:04;;;;;;;3.42;0.70;;;;;;;15.33;100.00;100084.16;5115931;27;20103;-83
2022/12/31 06:38:33;;;;;;;9.05;0.70;;;;;;;15.32;100.00;100083.31;5123383;27;20110;-82
2022/12/31 06:41:05;;;;;;;1.92;0.40;;;;;;;15.29;100.00;100075.38;5124345;27;20057;-82
2022/12/31 06:43:31;;;;;;;2.97;0.60;;;;;;;15.18;100.00;100073.84;5107254;27;20089;-83
2022/12/31 06:46:00;;;;;;;4.18;0.63;;;;;;;15.33;100.00;100071.25;5117128;27;20030;-83
2022/12/31 06:48:26;;;;;;;4.35;0.68;;;;;;;15.30;100.00;100070.72;5142112;27;20035;-83
2022/12/31 06:50:51;;;;;;;5.55;0.95;;;;;;;15.29;100.00;100074.53;5107449;27;20505;-83
2022/12/31 06:53:17;;;;;;;3.13;0.63;;;;;;;15.46;100.00;100087.25;5101050;27;20027;-83
2022/12/31 06:55:43;;;;;;;8.38;0.98;;;;;;;15.40;100.00;100071.41;5124924;27;20031;-82
2022/12/31 06:58:12;;;;;;;3.55;0.50;;;;;;;15.40;100.00;100085.22;5121390;27;20031;-84
2022/12/31 07:00:43;;;;;;;2.63;0.70;;;;;;;15.60;100.00;100107.81;5138483;27;20117;-82
2022/12/31 07:03:08;;;;;;;11.02;0.70;;;;;;;15.66;100.00;100087.78;5119137;27;20027;-83
2022/12/31 07:06:13;;;;;;;2.45;0.60;;;;;;;15.77;100.00;100095.75;5101183;27;20045;-84
2022/12/31 07:08:58;;;;;;;8.57;0.73;;;;;;;15.69;100.00;100100.38;5119233;27;20027;-85
2022/12/31 07:11:34;;;;;;;4.82;0.80;;;;;;;15.62;100.00;100098.28;5102282;27;20030;-83
2022/12/31 07:14:59;;;;;;;7.38;0.63;;;;;;;15.65;100.00;100112.81;5135973;27;20050;-83
2022/12/31 07:17:30;;;;;;;11.80;1.10;;;;;;;15.56;100.00;100100.88;5056318;28;20090;-81
2022/12/31 07:20:28;;;;;;;9.98;0.80;;;;;;;15.56;100.00;100110.03;5131961;27;20119;-81
2022/12/31 07:22:53;;;;;;;7.00;0.55;;;;;;;15.52;100.00;100097.63;5138192;27;20055;-81
2022/12/31 07:25:20;;;;;;;7.78;1.77;;;;;;;15.59;100.00;100106.94;5132804;27;20034;-82
2022/12/31 07:28:09;;;;;;;3.33;0.77;;;;;;;15.63;100.00;100115.75;5133706;27;20482;-83
2022/12/31 07:30:53;;;;;;;6.53;1.63;;;;;;;15.59;100.00;100125.38;5139102;27;20046;-82
2022/12/31 07:33:30;;;;;;;9.52;1.63;;;;;;;15.48;100.00;100118.31;5139632;27;20105;-80
2022/12/31 07:36:16;;;;;;;13.20;1.83;;;;;;;15.47;100.00;100116.59;5140002;27;20038;-83
2022/12/31 07:39:00;;;;;;;5.45;0.60;;;;;;;15.56;100.00;100089.84;5132906;27;20026;-82
2022/12/31 07:41:44;;;;;;;;;;;;;;;15.56;100.00;100118.31;5119407;28;20027;-82
2022/12/31 07:44:21;;;;;;;8.07;0.85;;;;;;;15.65;100.00;100130.22;5119720;28;19968;-81
2022/12/31 07:46:50;;;;;;;9.48;0.90;;;;;;;15.64;100.00;100128.47;5128473;27;20054;-81
2022/12/31 07:49:16;;;;;;;6.75;0.93;;;;;;;15.48;100.00;100117.44;5143591;28;20031;-81
2022/12/31 07:51:42;;;;;;;12.38;0.88;;;;;;;15.39;100.00;100114.69;5103061;27;20104;-81
2022/12/31 07:54:07;;;;;;;10.18;1.08;;;;;;;15.52;100.00;100113.31;5118885;28;20042;-80
2022/12/31 07:56:32;;;;;;;9.45;0.80;;;;;;;15.38;100.00;100106.56;5091030;28;20122;-81
2022/12/31 07:59:19;;;;;;;6.78;1.00;;;;;;;15.47;100.00;100105.56;5106798;28;20020;-80
2022/12/31 08:01:56;;;;;;;7.20;0.90;;;;;;;15.52;100.00;100127.13;5146448;27;20027;-81
2022/12/31 08:04:34;;;;;;;7.00;0.88;;;;;;;15.42;100.00;100117.09;5136912;27;20561;-81
2022/12/31 08:07:24;;;;;;;4.90;0.80;;;;;;;15.46;100.00;100125.88;5145428;27;20424;-80
2022/12/31 08:10:01;;;;;;;5.97;1.08;;;;;;;15.44;100.00;100127.97;5145001;27;20039;-81
2022/12/31 08:12:30;;;;;;;13.98;1.10;;;;;;;15.50;100.00;100130.03;5109018;27;20432;-81
2022/12/31 08:14:55;;;;;;;5.05;0.82;;;;;;;15.43;100.00;100117.97;5107207;28;20036;-81
2022/12/31 08:17:21;;;;;;;6.10;1.13;;;;;;;15.54;100.00;100125.03;5108610;28;20173;-81
2022/12/31 08:19:47;;;;;;;6.32;0.90;;;;;;;15.60;100.00;100133.50;5098421;27;20046;-81
2022/12/31 08:22:38;;;;;;;8.30;1.17;;;;;;;15.68;100.00;100142.81;5127880;27;20057;-81
2022/12/31 08:25:13;;;;;;;6.30;0.77;;;;;;;15.71;100.00;100145.22;5108872;27;20023;-79
2022/12/31 08:27:51;;;;;;;6.60;0.98;;;;;;;15.74;100.00;100148.50;5146535;27;20039;-80
2022/12/31 08:30:19;;;;;;;2.92;1.05;;;;;;;15.81;100.00;100165.28;5094971;28;20050;-81
2022/12/31 08:32:54;;;;;;;8.30;0.70;;;;;;;15.83;100.00;100176.16;5109318;28;20035;-82
2022/12/31 08:35:38;;;;;;;6.00;0.60;;;;;;;15.91;100.00;100176.16;5108028;28;20440;-81
2022/12/31 08:38:35;;;;;;;2.67;0.65;;;;;;;16.02;100.00;100183.19;5129078;27;20050;-81
2022/12/31 08:41:15;;;;;;;5.85;0.80;;;;;;;15.95;100.00;100206.00;5128987;27;20384;-82
2022/12/31 08:44:02;;;;;;;6.55;0.60;;;;;;;16.05;100.00;100216.00;5129847;27;20024;-82
2022/12/31 08:46:39;;;;;;;7.65;1.05;;;;;;;16.02;100.00;100216.34;5109224;28;20054;-80
2022/12/31 08:49:08;;;;;;;5.93;0.85;;;;;;;16.13;100.00;100233.44;5091789;28;20048;-81
2022/12/31 08:51:34;;;;;;;8.98;0.60;;;;;;;15.97;100.00;100211.31;5091020;28;20031;-80
2022/12/31 08:54:00;;;;;;;6.57;0.80;;;;;;;16.02;100.00;100214.44;5131425;27;20100;-81
2022/12/31 08:56:34;;;;;;;3.72;0.80;;;;;;;16.08;100.00;100223.94;5108673;28;20032;-81
2022/12/31 08:59:39;;;;;;;8.40;0.63;;;;;;;16.05;100.00;100230.66;5109119;28;20026;-81
2022/12/31 09:02:17;;;;;;;5.95;0.70;;;;;;;16.14;100.00;100256.38;5125685;28;20024;-79
2022/12/31 09:05:13;;;;;;;9.93;0.90;;;;;;;15.96;100.00;100246.38;5109135;28;20032;-80
2022/12/31 09:07:49;;;;;;;5.95;0.82;;;;;;;16.06;100.00;100253.63;5125966;28;20040;-81
2022/12/31 09:10:26;;;;;;;3.17;0.75;;;;;;;16.11;100.00;100263.09;5126513;28;20030;-81
2022/12/31 09:12:55;;;;;;;6.80;0.70;;;;;;;15.97;100.00;100289.53;5092296;28;20032;-82
2022/12/31 09:15:32;;;;;;;3.45;1.42;;;;;;;16.04;100.00;100288.84;5096295;27;20019;-81
2022/12/31 09:17:58;;;;;;;4.28;0.80;;;;;;;15.97;100.00;100299.69;5128543;27;20127;-82
2022/12/31 09:20:24;;;;;;;7.95;1.23;;;;;;;15.84;100.00;100293.78;5106698;27;20046;-81
2022/12/31 09:22:51;;;;;;;11.30;1.35;;;;;;;15.90;100.00;100287.59;5111163;27;20114;-82
2022/12/31 09:25:18;;;;;;;5.07;0.70;;;;;;;15.92;100.00;100296.56;5142706;27;20118;-81
2022/12/31 09:28:02;;;;;;;3.10;0.65;;;;;;;15.88;100.00;100306.25;5105667;28;20053;-80
2022/12/31 09:30:37;;;;;;;9.10;0.93;;;;;;;15.89;100.00;100303.31;5116068;27;20039;-79
2022/12/31 09:33:15;;;;;;;4.40;0.80;;;;;;;15.89;100.00;100314.34;5136664;27;20039;-79
2022/12/31 09:36:02;;;;;;;8.73;1.05;;;;;;;15.86;100.00;100314.69;5101985;27;20027;-79
2022/12/31 09:38:51;;;;;;;10.07;1.10;;;;;;;15.79;100.00;100308.13;5101692;27;20038;-79
2022/12/31 09:41:35;;;;;;;6.03;0.90;;;;;;;15.83;100.00;100295.72;5102407;27;20023;-79
2022/12/31 09:44:31;;;;;;;10.88;1.02;;;;;;;15.85;100.00;100296.38;5108257;28;20084;-80
2022/12/31 09:47:15;;;;;;;8.13;0.95;;;;;;;15.90;100.00;100304.16;5099278;28;20031;-80
2022/12/31 09:49:55;;;;;;;15.88;1.35;;;;;;;15.96;100.00;100325.59;5117643;28;20500;-79
2022/12/31 09:52:37;;;;;;;22.40;9.30;;;;;;;16.00;100.00;100329.72;5085321;27;20540;-79
2022/12/31 09:55:30;;;;;;;2.13;0.70;;;;;;;15.87;100.00;100333.00;5116260;27;20490;-80
2022/12/31 09:58:25;;;;;;;8.10;0.80;;;;;;;15.97;100.00;100338.34;5118930;27;20075;-79
2022/12/31 10:01:06;;;;;;;11.88;1.95;;;;;;;15.99;100.00;100339.91;5120160;27;20038;-79
2022/12/31 10:03:41;;;;;;;6.93;0.80;;;;;;;16.03;100.00;100347.88;5118031;27;20474;-79
2022/12/31 10:06:21;;;;;;;6.35;1.02;;;;;;;16.13;100.00;100346.69;5135721;27;20470;-79
2022/12/31 10:09:01;;;;;;;5.60;0.90;;;;;;;16.16;100.00;100345.47;5119341;27;20395;-79
2022/12/31 10:11:33;;;;;;;6.70;0.90;;;;;;;16.10;100.00;100340.59;5099865;27;20026;-79
2022/12/31 10:14:23;;;;;;;13.82;1.10;;;;;;;16.23;100.00;100343.72;5134916;27;20038;-79
2022/12/31 10:17:00;;;;;;;8.18;1.17;;;;;;;16.31;100.00;100354.78;5116670;27;20035;-80
2022/12/31 10:19:35;;;;;;;3.65;0.82;;;;;;;16.28;100.00;100351.50;5137064;27;20031;-80
2022/12/31 10:22:15;;;;;;;7.22;1.10;;;;;;;16.31;100.00;100352.03;5101939;27;20027;-80
2022/12/31 10:24:52;;;;;;;12.52;1.70;;;;;;;16.29;100.00;100344.97;5086739;27;20031;-80
2022/12/31 10:27:50;;;;;;;8.68;1.08;;;;;;;16.46;100.00;100343.94;5118520;27;20410;-79
2022/12/31 10:30:20;;;;;;;6.72;1.25;;;;;;;16.42;100.00;100344.44;5117177;27;20051;-81
2022/12/31 10:32:48;;;;;;;3.33;0.80;;;;;;;16.49;100.00;100351.00;5099570;27;20035;-79
2022/12/31 10:35:38;;;;;;;4.32;1.25;;;;;;;16.58;100.00;100336.16;5117439;27;20046;-79
2022/12/31 10:38:22;;;;;;;8.57;1.08;;;;;;;16.62;100.00;100336.66;5136758;27;20164;-80
2022/12/31 10:40:57;;;;;;;8.10;0.90;;;;;;;16.61;100.00;100322.00;5120352;27;20039;-81
2022/12/31 10:43:25;;;;;;;17.52;1.10;;;;;;;16.67;100.00;100324.03;5101906;27;20027;-81
2022/12/31 10:46:28;;;;;;;11.07;1.60;;;;;;;16.63;100.00;100330.97;5118858;27;20038;-80
2022/12/31 10:49:15;;;;;;;10.02;1.83;;;;;;;16.76;100.00;100333.22;5123419;27;20516;-82
2022/12/31 10:52:08;;;;;;;7.63;0.90;;;;;;;16.82;100.00;100332.50;5140549;27;20035;-81
2022/12/31 10:54:58;;;;;;;7.25;1.17;;;;;;;16.81;100.00;100340.97;5121513;27;20042;-79
2022/12/31 10:57:45;;;;;;;11.75;0.70;;;;;;;16.88;100.00;100348.41;5102777;28;20489;-80
2022/12/31 11:00:13;;;;;;;8.18;1.17;;;;;;;16.87;100.00;100352.22;5117622;27;20030;-81
2022/12/31 11:02:39;;;;;;;10.57;1.55;;;;;;;16.77;100.00;100356.19;5139201;27;20027;-80
2022/12/31 11:05:25;;;;;;;9.95;1.17;;;;;;;16.74;100.00;100340.78;5139191;27;20079;-81
2022/12/31 11:07:59;;;;;;;6.35;1.35;;;;;;;16.82;100.00;100354.63;5122109;27;20031;-81
2022/12/31 11:10:40;;;;;;;11.43;2.00;;;;;;;16.75;100.00;100353.59;5104807;27;20063;-81
2022/12/31 11:13:46;;;;;;;7.10;1.05;;;;;;;16.75;100.00;100352.72;5139899;27;20034;-80
2022/12/31 11:16:26;;;;;;;8.82;1.83;;;;;;;16.71;100.00;100363.28;5137852;27;20148;-80
2022/12/31 11:19:41;;;;;;;5.38;0.95;;;;;;;16.72;100.00;100360.34;5101059;28;20027;-79
2022/12/31 11:22:28;;;;;;;9.32;1.30;;;;;;;16.83;100.00;100356.34;5094955;28;20079;-81
2022/12/31 11:25:03;;;;;;;8.77;1.23;;;;;;;16.91;100.00;100361.03;5100512;27;20027;-81
2022/12/31 11:27:40;;;;;;;8.57;1.40;;;;;;;16.85;100.00;100365.34;5143615;27;20034;-80
2022/12/31 11:30:20;;;;;;;17.92;1.98;;;;;;;16.85;100.00;100350.66;5141015;27;20401;-81
2022/12/31 11:33:05;;;;;;;8.18;1.30;;;;;;;16.83;100.00;100363.78;5125692;27;20027;-81
2022/12/31 11:35:55;;;;;;;12.32;1.20;;;;;;;16.85;100.00;100354.28;5106083;27;20118;-80
2022/12/31 11:38:28;;;;;;;9.07;3.33;;;;;;;16.94;100.00;100355.16;5123747;27;20087;-80
2022/12/31 11:41:01;;;;;;;9.75;1.70;;;;;;;16.78;100.00;100358.78;5120135;27;20027;-79
2022/12/31 11:43:50;;;;;;;14.77;2.72;;;;;;;16.89;100.00;100376.94;5124144;28;20054;-79
2022/12/31 11:46:15;;;;;;;15.52;1.90;;;;;;;16.85;100.00;100381.09;5134206;28;20035;-80
2022/12/31 11:48:43;;;;;;;5.80;1.20;;;;;;;16.82;100.00;100370.34;5125166;28;20044;-80
2022/12/31 11:51:21;;;;;;;10.45;1.35;;;;;;;16.88;100.00;100367.78;5124826;28;20108;-83